Terminal Aerodrome Forecast
Issued by NWS Flagstaff, AZ

Home | Current Version | Previous Version | Text Only | Print | Product List | Glossary On
Versions: 1 2 3 4 5 6 7 8 9 10 11 12 13
136
FTUS45 KFGZ 221133
TAFINW
TAF
KINW 221133Z 2212/2312 20009KT P6SM SCT150
     FM221900 28018G28KT P6SM FEW150
     FM230230 25011KT P6SM FEW140=

USA.gov is the U.S. government's official web portal to all federal, state and local government web resources and services.